createdAt,value
2018-04-16T00:00:37.212Z,81.51
2018-04-16T00:01:37.404Z,81.70
2018-04-16T00:02:37.587Z,81.22
2018-04-16T00:03:37.788Z,81.41
2018-04-16T00:04:37.999Z,80.84
2018-04-16T00:05:38.292Z,80.55
2018-04-16T00:06:38.369Z,80.17
2018-04-16T00:07:38.549Z,80.27
2018-04-16T00:08:38.759Z,79.98
2018-04-16T00:11:11.036Z,80.17
2018-04-16T00:12:11.207Z,79.22
2018-04-16T00:13:11.409Z,79.31
2018-04-16T00:14:11.598Z,79.60
2018-04-16T00:15:11.785Z,80.36
2018-04-16T00:16:11.977Z,79.41
2018-04-16T00:17:12.173Z,79.79
2018-04-16T00:18:12.357Z,80.46
2018-04-16T00:19:12.539Z,80.17
2018-04-16T00:21:44.855Z,80.36
2018-04-16T00:22:45.025Z,80.65
2018-04-16T00:23:45.237Z,81.03
2018-04-16T00:24:45.443Z,80.93
2018-04-16T00:25:45.644Z,80.17
2018-04-16T00:26:45.847Z,80.74
2018-04-16T00:27:46.027Z,81.03
2018-04-16T00:28:46.207Z,80.84
2018-04-16T00:29:46.407Z,81.03
2018-04-16T00:30:46.613Z,81.13
2018-04-16T00:31:46.830Z,80.17
2018-04-16T00:32:47.013Z,80.17
2018-04-16T00:33:47.221Z,80.46
2018-04-16T00:34:47.405Z,79.88
2018-04-16T00:35:47.631Z,79.69
2018-04-16T00:36:47.777Z,80.07
2018-04-16T00:37:47.985Z,79.60
2018-04-16T00:38:48.188Z,79.98
2018-04-16T00:39:48.395Z,80.07
2018-04-16T00:40:48.603Z,79.22
2018-04-16T00:41:48.799Z,79.69
2018-04-16T00:42:48.995Z,79.31
2018-04-16T00:43:49.197Z,79.98
2018-04-16T00:44:49.401Z,79.98
2018-04-16T00:45:49.589Z,79.54
2018-04-16T00:46:49.801Z,79.69
2018-04-16T00:47:50.001Z,79.41
2018-04-16T00:48:50.197Z,79.41
2018-04-16T00:49:50.393Z,79.41
2018-04-16T00:50:50.584Z,79.50
2018-04-16T00:51:50.773Z,79.50
2018-04-16T00:52:50.968Z,79.41
2018-04-16T00:53:51.147Z,79.79
2018-04-16T00:54:51.333Z,79.69
2018-04-16T00:55:51.536Z,79.41
2018-04-16T00:56:51.735Z,79.31
2018-04-16T00:57:51.917Z,80.27
2018-04-16T00:58:52.110Z,79.69
2018-04-16T00:59:52.297Z,79.41
2018-04-16T01:00:52.497Z,80.17
2018-04-16T01:01:52.701Z,80.07
2018-04-16T01:02:52.885Z,80.27
2018-04-16T01:03:53.073Z,80.36
2018-04-16T01:04:53.254Z,79.69
2018-04-16T01:05:53.440Z,79.60
2018-04-16T01:06:53.642Z,79.79
2018-04-16T01:07:53.852Z,79.69
2018-04-16T01:08:54.180Z,79.60
2018-04-16T01:09:54.247Z,79.50
2018-04-16T01:10:54.441Z,79.98
2018-04-16T01:11:54.639Z,79.69
2018-04-16T01:12:54.844Z,79.88
2018-04-16T01:13:55.055Z,79.88
2018-04-16T01:14:55.253Z,79.69
2018-04-16T01:15:55.466Z,79.50
2018-04-16T01:16:55.656Z,80.36
2018-04-16T01:17:55.872Z,80.17
2018-04-16T01:18:56.057Z,80.27
2018-04-16T01:19:56.252Z,80.27
2018-04-16T01:20:56.462Z,80.07
2018-04-16T01:21:56.671Z,80.07
2018-04-16T01:22:56.882Z,80.17
2018-04-16T01:25:29.167Z,80.74
2018-04-16T01:26:29.325Z,80.74
2018-04-16T01:27:29.524Z,80.36
2018-04-16T01:28:29.718Z,80.27
2018-04-16T01:29:29.907Z,80.55
2018-04-16T01:30:30.110Z,80.65
2018-04-16T01:31:30.293Z,80.46
2018-04-16T01:32:30.504Z,80.46
2018-04-16T01:33:30.692Z,80.36
2018-04-16T01:34:30.894Z,80.36
2018-04-16T01:35:31.115Z,80.46
2018-04-16T01:36:31.302Z,80.36
2018-04-16T01:37:31.515Z,80.17
2018-04-16T01:38:31.705Z,79.41
2018-04-16T01:39:31.893Z,80.07
2018-04-16T01:40:32.144Z,80.46
2018-04-16T01:41:32.293Z,80.27
2018-04-16T01:42:32.474Z,80.55
2018-04-16T01:43:32.693Z,80.27
2018-04-16T01:44:32.901Z,80.07
2018-04-16T01:45:33.088Z,79.69
2018-04-16T01:46:33.270Z,80.27
2018-04-16T01:47:33.465Z,79.50
2018-04-16T01:48:33.647Z,79.60
2018-04-16T01:49:33.837Z,80.07
2018-04-16T01:50:34.049Z,79.50
2018-04-16T01:53:07.891Z,79.44
2018-04-16T01:54:06.310Z,80.79
2018-04-16T01:55:06.519Z,81.07
2018-04-16T01:56:06.696Z,81.51
2018-04-16T01:57:06.882Z,81.60
2018-04-16T01:58:07.076Z,82.65
2018-04-16T01:59:07.267Z,83.33
2018-04-16T02:00:07.473Z,84.47
2018-04-16T02:01:07.657Z,84.66
2018-04-16T02:02:07.841Z,85.33
2018-04-16T02:03:08.037Z,85.18
2018-04-16T02:04:08.230Z,85.33
2018-04-16T02:05:08.432Z,85.81
2018-04-16T02:06:08.634Z,85.71
2018-04-16T02:07:08.822Z,86.38
2018-04-16T02:08:09.010Z,86.76
2018-04-16T02:09:09.226Z,86.67
2018-04-16T02:10:09.434Z,86.76
2018-04-16T02:11:09.645Z,87.15
2018-04-16T02:12:09.853Z,87.62
2018-04-16T02:13:10.063Z,87.62
2018-04-16T02:14:10.273Z,88.01
2018-04-16T02:15:10.476Z,87.62
2018-04-16T02:17:43.832Z,88.01
2018-04-16T02:18:42.509Z,87.62
2018-04-16T02:19:42.704Z,87.53
2018-04-16T02:20:42.916Z,87.58
2018-04-16T02:21:43.121Z,87.62
2018-04-16T02:22:43.321Z,87.68
2018-04-16T02:23:43.524Z,87.29
2018-04-16T02:24:43.720Z,88.06
2018-04-16T02:25:43.905Z,88.06
2018-04-16T02:26:44.117Z,88.82
2018-04-16T02:27:44.319Z,89.30
2018-04-16T02:28:44.534Z,89.01
2018-04-16T02:29:44.712Z,89.11
2018-04-16T02:30:44.903Z,89.11
2018-04-16T02:31:45.096Z,88.92
2018-04-16T02:32:45.291Z,90.16
2018-04-16T02:33:45.473Z,89.20
2018-04-16T02:34:45.672Z,90.06
2018-04-16T02:35:45.873Z,89.97
2018-04-16T02:36:46.081Z,89.20
2018-04-16T02:37:46.300Z,89.20
2018-04-16T02:38:46.523Z,89.20
2018-04-16T02:39:46.705Z,89.30
2018-04-16T02:40:46.906Z,90.11
2018-04-16T02:41:47.121Z,90.16
2018-04-16T02:44:19.402Z,89.78
2018-04-16T02:45:19.508Z,89.83
2018-04-16T02:46:19.700Z,89.20
2018-04-16T02:47:19.910Z,89.11
2018-04-16T02:48:20.094Z,89.49
2018-04-16T02:49:20.305Z,89.78
2018-04-16T02:50:20.492Z,89.78
2018-04-16T02:51:20.695Z,90.16
2018-04-16T02:52:20.908Z,89.49
2018-04-16T02:53:21.086Z,90.16
2018-04-16T02:54:21.293Z,90.25
2018-04-16T02:55:21.512Z,90.02
2018-04-16T02:56:21.713Z,89.73
2018-04-16T02:57:21.901Z,90.11
2018-04-16T02:58:22.098Z,90.35
2018-04-16T02:59:22.284Z,90.11
2018-04-16T03:00:22.490Z,89.64
2018-04-16T03:01:22.675Z,90.11
2018-04-16T03:02:22.859Z,90.31
2018-04-16T03:03:23.053Z,90.31
2018-04-16T03:04:23.256Z,90.50
2018-04-16T03:05:23.477Z,90.50
2018-04-16T03:06:23.678Z,89.83
2018-04-16T03:07:23.901Z,90.02
2018-04-16T03:08:24.081Z,90.31
2018-04-16T03:09:24.319Z,90.31
2018-04-16T03:10:24.519Z,90.31
2018-04-16T03:11:24.729Z,90.59
2018-04-16T03:12:24.920Z,90.78
2018-04-16T03:13:25.104Z,90.78
2018-04-16T03:14:25.283Z,91.16
2018-04-16T03:15:25.463Z,91.07
2018-04-16T03:16:25.685Z,91.26
2018-04-16T03:17:25.870Z,91.36
2018-04-16T03:18:26.061Z,91.64
2018-04-16T03:19:26.245Z,91.55
2018-04-16T03:20:26.447Z,92.02
2018-04-16T03:21:26.647Z,91.93
2018-04-16T03:22:26.867Z,91.93
2018-04-16T03:23:27.058Z,92.02
2018-04-16T03:24:27.266Z,91.83
2018-04-16T03:25:27.474Z,91.64
2018-04-16T03:26:27.683Z,91.74
2018-04-16T03:27:27.892Z,91.93
2018-04-16T03:28:28.097Z,92.21
2018-04-16T03:29:28.296Z,92.12
2018-04-16T03:30:28.493Z,92.12
2018-04-16T03:31:28.708Z,91.74
2018-04-16T03:32:28.888Z,92.12
2018-04-16T03:33:29.096Z,92.12
2018-04-16T03:34:29.277Z,92.12
2018-04-16T03:35:29.490Z,92.21
2018-04-16T03:36:29.688Z,91.83
2018-04-16T03:37:29.871Z,91.83
2018-04-16T03:38:30.121Z,92.12
2018-04-16T03:39:30.192Z,92.12
2018-04-16T03:40:30.376Z,92.02
2018-04-16T03:41:30.571Z,91.55
2018-04-16T03:42:30.776Z,91.55
2018-04-16T03:43:30.966Z,92.36
2018-04-16T03:44:31.187Z,92.88
2018-04-16T03:45:31.363Z,92.21
2018-04-16T03:46:31.571Z,92.60
2018-04-16T03:47:31.764Z,92.50
2018-04-16T03:48:31.962Z,92.31
2018-04-16T03:49:32.168Z,92.12
2018-04-16T03:50:32.370Z,92.31
2018-04-16T03:51:32.557Z,92.41
2018-04-16T03:52:32.745Z,92.60
2018-04-16T03:53:32.972Z,91.93
2018-04-16T03:54:33.169Z,92.12
2018-04-16T03:55:33.377Z,92.41
2018-04-16T03:56:33.583Z,92.50
2018-04-16T03:57:33.776Z,91.93
2018-04-16T03:58:33.981Z,91.83
2018-04-16T03:59:34.167Z,91.55
2018-04-16T04:00:34.386Z,91.74
2018-04-16T04:01:34.581Z,91.74
2018-04-16T04:02:34.778Z,91.36
2018-04-16T04:03:34.984Z,91.36
2018-04-16T04:04:35.178Z,91.45
2018-04-16T04:05:35.390Z,91.64
2018-04-16T04:06:35.594Z,91.74
2018-04-16T04:07:35.917Z,91.55
2018-04-16T04:08:36.001Z,91.45
2018-04-16T04:09:36.193Z,91.74
2018-04-16T04:10:36.385Z,92.02
2018-04-16T04:11:36.582Z,91.83
2018-04-16T04:12:36.762Z,91.45
2018-04-16T04:13:36.947Z,91.74
2018-04-16T04:14:37.134Z,91.55
2018-04-16T04:15:37.316Z,91.26
2018-04-16T04:16:37.508Z,91.93
2018-04-16T04:17:37.703Z,91.98
2018-04-16T04:20:09.908Z,92.17
2018-04-16T04:21:09.949Z,92.36
2018-04-16T04:22:10.145Z,92.69
2018-04-16T04:23:10.334Z,92.83
2018-04-16T04:24:10.523Z,92.79
2018-04-16T04:25:10.717Z,92.50
2018-04-16T04:26:10.916Z,92.41
2018-04-16T04:27:11.129Z,92.79
2018-04-16T04:28:11.339Z,92.46
2018-04-16T04:29:11.545Z,92.79
2018-04-16T04:30:11.738Z,92.60
2018-04-16T04:31:11.923Z,92.31
2018-04-16T04:32:12.127Z,92.60
2018-04-16T04:33:12.327Z,92.50
2018-04-16T04:34:12.516Z,92.69
2018-04-16T04:35:12.717Z,92.83
2018-04-16T04:36:12.908Z,92.83
2018-04-16T04:37:13.113Z,92.93
2018-04-16T04:38:14.056Z,92.83
2018-04-16T04:39:13.510Z,93.41
2018-04-16T04:40:13.715Z,92.83
2018-04-16T04:41:13.916Z,92.65
2018-04-16T04:42:14.120Z,92.74
2018-04-16T04:43:14.324Z,92.69
2018-04-16T04:44:14.516Z,92.88
2018-04-16T04:45:14.802Z,93.02
2018-04-16T04:46:14.918Z,93.02
2018-04-16T04:47:15.121Z,92.74
2018-04-16T04:48:15.311Z,92.50
2018-04-16T04:49:15.507Z,92.79
2018-04-16T04:50:15.694Z,92.74
2018-04-16T04:51:15.883Z,92.21
2018-04-16T04:53:47.991Z,92.21
2018-04-16T04:54:48.168Z,91.93
2018-04-16T04:55:48.372Z,91.74
2018-04-16T04:56:48.590Z,91.36
2018-04-16T04:57:48.799Z,91.74
2018-04-16T04:58:48.986Z,91.36
2018-04-16T04:59:49.183Z,91.64
2018-04-16T05:00:49.370Z,91.55
2018-04-16T05:01:49.566Z,91.26
2018-04-16T05:02:49.762Z,90.97
2018-04-16T05:03:49.949Z,90.78
2018-04-16T05:04:50.132Z,90.78
2018-04-16T05:05:50.333Z,91.36
2018-04-16T05:06:50.540Z,90.78
2018-04-16T05:07:50.737Z,90.69
2018-04-16T05:08:50.947Z,90.78
2018-04-16T05:09:51.158Z,90.88
2018-04-16T05:10:51.363Z,91.07
2018-04-16T05:11:51.577Z,90.21
2018-04-16T05:12:51.757Z,90.40
2018-04-16T05:13:51.966Z,90.40
2018-04-16T05:14:52.150Z,90.50
2018-04-16T05:15:52.347Z,89.83
2018-04-16T05:16:52.536Z,90.02
2018-04-16T05:17:52.739Z,90.16
2018-04-16T05:18:52.943Z,89.78
2018-04-16T05:19:53.144Z,89.59
2018-04-16T05:20:53.335Z,90.16
2018-04-16T05:21:53.545Z,90.54
2018-04-16T05:22:53.752Z,89.68
2018-04-16T05:23:53.956Z,90.35
2018-04-16T05:24:54.163Z,89.49
2018-04-16T05:25:54.357Z,90.21
2018-04-16T05:26:54.541Z,90.21
2018-04-16T05:27:54.738Z,90.88
2018-04-16T05:28:54.944Z,90.78
2018-04-16T05:29:55.155Z,90.69
2018-04-16T05:30:55.365Z,90.31
2018-04-16T05:31:55.572Z,90.31
2018-04-16T05:32:55.777Z,90.21
2018-04-16T05:33:55.973Z,90.11
2018-04-16T05:34:56.159Z,90.02
2018-04-16T05:35:56.361Z,90.21
2018-04-16T05:36:56.553Z,90.35
2018-04-16T05:37:56.776Z,90.16
2018-04-16T05:38:56.984Z,90.35
2018-04-16T05:39:57.188Z,90.25
2018-04-16T05:40:57.416Z,90.06
2018-04-16T05:41:57.631Z,90.35
2018-04-16T05:42:57.827Z,90.54
2018-04-16T05:43:58.017Z,90.64
2018-04-16T05:46:30.136Z,91.11
2018-04-16T05:47:30.312Z,91.11
2018-04-16T05:48:30.516Z,91.02
2018-04-16T05:49:30.725Z,90.45
2018-04-16T05:50:30.913Z,90.45
2018-04-16T05:51:31.097Z,90.16
2018-04-16T05:52:31.281Z,89.87
2018-04-16T05:53:31.466Z,90.16
2018-04-16T05:54:31.659Z,89.39
2018-04-16T05:55:31.847Z,89.97
2018-04-16T05:56:32.052Z,89.39
2018-04-16T05:57:32.268Z,89.78
2018-04-16T05:58:32.483Z,89.87
2018-04-16T05:59:32.674Z,90.06
2018-04-16T06:00:32.883Z,90.11
2018-04-16T06:01:33.065Z,88.92
2018-04-16T06:02:33.265Z,90.16
2018-04-16T06:03:33.467Z,89.97
2018-04-16T06:04:33.652Z,89.87
2018-04-16T06:05:33.839Z,89.39
2018-04-16T06:06:34.139Z,90.16
2018-04-16T06:07:34.227Z,89.59
2018-04-16T06:08:34.434Z,89.39
2018-04-16T06:09:34.645Z,89.44
2018-04-16T06:10:34.867Z,89.53
2018-04-16T06:11:35.049Z,88.29
2018-04-16T06:12:35.249Z,87.82
2018-04-16T06:13:35.491Z,88.05
2018-04-16T06:14:35.667Z,87.53
2018-04-16T06:15:35.845Z,87.15
2018-04-16T06:16:36.062Z,87.38
2018-04-16T06:17:36.266Z,86.96
2018-04-16T06:18:36.452Z,86.43
2018-04-16T06:19:36.680Z,86.80
2018-04-16T06:20:36.857Z,86.10
2018-04-16T06:21:37.067Z,86.43
2018-04-16T06:22:37.267Z,86.90
2018-04-16T06:23:37.474Z,86.71
2018-04-16T06:24:37.663Z,86.61
2018-04-16T06:25:37.864Z,86.23
2018-04-16T06:26:38.085Z,86.57
2018-04-16T06:27:38.286Z,86.67
2018-04-16T06:28:38.493Z,86.43
2018-04-16T06:31:12.338Z,87.66
2018-04-16T06:32:10.767Z,87.38
2018-04-16T06:33:10.959Z,87.00
2018-04-16T06:34:11.162Z,86.80
2018-04-16T06:35:11.360Z,85.75
2018-04-16T06:36:11.553Z,85.94
2018-04-16T06:37:11.843Z,86.04
2018-04-16T06:38:11.912Z,85.85
2018-04-16T06:39:12.105Z,85.57
2018-04-16T06:40:12.312Z,85.57
2018-04-16T06:41:12.496Z,85.57
2018-04-16T06:42:12.679Z,85.18
2018-04-16T06:43:12.867Z,85.09
2018-04-16T06:44:13.050Z,84.70
2018-04-16T06:45:13.264Z,84.89
2018-04-16T06:46:13.413Z,84.23
2018-04-16T06:47:13.628Z,84.52
2018-04-16T06:48:13.810Z,83.84
2018-04-16T06:49:14.002Z,84.32
2018-04-16T06:50:14.217Z,84.32
2018-04-16T06:51:14.454Z,83.94
2018-04-16T06:52:14.663Z,84.32
2018-04-16T06:53:14.856Z,83.79
2018-04-16T06:54:15.036Z,83.40
2018-04-16T06:55:15.234Z,82.93
2018-04-16T06:56:15.416Z,81.97
2018-04-16T06:57:15.626Z,83.12
2018-04-16T06:58:15.830Z,82.17
2018-04-16T06:59:16.051Z,82.35
2018-04-16T07:00:16.262Z,81.68
2018-04-16T07:01:16.447Z,81.68
2018-04-16T07:02:16.640Z,81.49
2018-04-16T07:03:16.830Z,81.73
2018-04-16T07:04:17.041Z,80.67
2018-04-16T07:05:17.219Z,80.54
2018-04-16T07:06:17.409Z,81.40
2018-04-16T07:07:17.603Z,80.92
2018-04-16T07:08:17.830Z,81.78
2018-04-16T07:09:18.118Z,81.21
2018-04-16T07:10:18.194Z,81.25
2018-04-16T07:11:18.397Z,80.19
2018-04-16T07:12:18.619Z,80.10
2018-04-16T07:13:18.803Z,79.72
2018-04-16T07:14:18.995Z,79.33
2018-04-16T07:15:19.197Z,78.51
2018-04-16T07:16:19.401Z,77.36
2018-04-16T07:17:19.591Z,77.55
2018-04-16T07:18:19.801Z,77.50
2018-04-16T07:19:19.993Z,77.59
2018-04-16T07:20:20.184Z,76.86
2018-04-16T07:21:20.368Z,76.57
2018-04-16T07:22:20.588Z,75.85
2018-04-16T07:23:20.808Z,75.95
2018-04-16T07:24:20.993Z,75.65
2018-04-16T07:25:21.189Z,74.76
2018-04-16T07:26:21.414Z,73.51
2018-04-16T07:27:21.630Z,74.08
2018-04-16T07:28:21.804Z,72.88
2018-04-16T07:29:21.990Z,73.13
2018-04-16T07:30:22.193Z,73.16
2018-04-16T07:31:22.398Z,72.01
2018-04-16T07:32:22.607Z,73.07
2018-04-16T07:33:22.799Z,73.74
2018-04-16T07:34:23.011Z,72.30
2018-04-16T07:35:23.209Z,71.09
2018-04-16T07:36:23.419Z,71.28
2018-04-16T07:37:23.615Z,70.51
2018-04-16T07:38:23.816Z,70.70
2018-04-16T07:39:24.021Z,69.93
2018-04-16T07:40:24.215Z,69.56
2018-04-16T07:41:24.425Z,70.80
2018-04-16T07:42:24.618Z,70.70
2018-04-16T07:43:24.809Z,70.84
2018-04-16T07:44:25.027Z,70.07
2018-04-16T07:45:25.219Z,70.84
2018-04-16T07:46:25.422Z,70.45
2018-04-16T07:47:25.619Z,69.43
2018-04-16T07:48:25.808Z,67.54
2018-04-16T07:49:26.048Z,67.25
2018-04-16T07:50:26.260Z,66.58
2018-04-16T07:51:26.469Z,66.36
2018-04-16T07:52:26.672Z,65.56
2018-04-16T07:53:26.871Z,63.60
2018-04-16T07:54:27.054Z,64.73
2018-04-16T07:55:27.247Z,64.73
2018-04-16T07:56:27.469Z,64.09
2018-04-16T07:57:27.682Z,66.30
2018-04-16T07:58:27.880Z,67.32
2018-04-16T07:59:28.068Z,66.49
2018-04-16T08:00:28.278Z,65.27
2018-04-16T08:03:00.674Z,63.70
2018-04-16T08:04:00.606Z,63.86
2018-04-16T08:05:00.788Z,64.50
2018-04-16T08:06:00.976Z,65.05
2018-04-16T08:07:01.179Z,66.30
2018-04-16T08:08:01.384Z,65.66
2018-04-16T08:09:01.594Z,65.14
2018-04-16T08:10:01.925Z,65.17
2018-04-16T08:11:01.982Z,65.56
2018-04-16T08:12:02.194Z,65.91
2018-04-16T08:13:02.406Z,65.66
2018-04-16T08:14:02.593Z,64.02
2018-04-16T08:15:02.812Z,64.37
2018-04-16T08:16:03.074Z,65.78
2018-04-16T08:17:03.205Z,66.20
2018-04-16T08:18:03.397Z,65.17
2018-04-16T08:19:03.590Z,65.08
2018-04-16T08:21:35.984Z,65.91
2018-04-16T08:22:35.911Z,63.99
2018-04-16T08:23:36.106Z,64.28
2018-04-16T08:26:10.962Z,64.69
2018-04-16T08:27:08.527Z,65.17
2018-04-16T08:28:08.708Z,63.92
2018-04-16T08:29:08.907Z,63.06
2018-04-16T08:30:09.114Z,64.43
2018-04-16T08:31:09.352Z,62.13
2018-04-16T08:32:09.554Z,61.29
2018-04-16T08:33:09.765Z,60.46
2018-04-16T08:34:09.970Z,59.56
2018-04-16T08:35:10.196Z,60.91
2018-04-16T08:36:10.361Z,62.13
2018-04-16T08:37:10.556Z,61.68
2018-04-16T08:38:10.748Z,60.27
2018-04-16T08:39:10.941Z,60.46
2018-04-16T08:40:11.131Z,60.75
2018-04-16T08:41:11.349Z,61.39
2018-04-16T08:42:11.544Z,60.30
2018-04-16T08:43:11.734Z,61.07
2018-04-16T08:44:11.978Z,62.48
2018-04-16T08:45:12.182Z,63.28
2018-04-16T08:47:44.309Z,63.54
2018-04-16T08:48:44.482Z,64.28
2018-04-16T08:49:44.698Z,64.47
2018-04-16T08:50:44.896Z,64.47
2018-04-16T08:51:45.093Z,64.40
2018-04-16T08:52:45.305Z,63.73
2018-04-16T08:53:45.503Z,62.80
2018-04-16T08:54:45.713Z,61.49
2018-04-16T08:55:45.907Z,61.00
2018-04-16T08:56:46.113Z,61.39
2018-04-16T08:57:46.434Z,61.19
2018-04-16T08:58:46.503Z,61.00
2018-04-16T08:59:46.691Z,60.81
2018-04-16T09:00:46.879Z,60.72
2018-04-16T09:01:47.091Z,59.85
2018-04-16T09:02:47.282Z,60.24
2018-04-16T09:03:47.493Z,59.47
2018-04-16T09:04:47.771Z,58.34
2018-04-16T09:05:47.846Z,58.08
2018-04-16T09:06:48.045Z,56.73
2018-04-16T09:07:48.269Z,57.50
2018-04-16T09:08:48.518Z,57.50
2018-04-16T09:09:48.686Z,57.86
2018-04-16T09:10:48.882Z,58.70
2018-04-16T09:13:21.058Z,59.17
2018-04-16T09:14:21.233Z,58.15
2018-04-16T09:15:21.434Z,58.02
2018-04-16T09:16:21.644Z,58.50
2018-04-16T09:17:21.861Z,59.92
2018-04-16T09:18:22.049Z,60.85
2018-04-16T09:19:22.248Z,60.97
2018-04-16T09:20:22.457Z,61.19
2018-04-16T09:21:22.670Z,61.58
2018-04-16T09:22:22.872Z,61.00
2018-04-16T09:23:23.060Z,60.91
2018-04-16T09:24:23.263Z,61.19
2018-04-16T09:25:23.465Z,59.88
2018-04-16T09:26:23.661Z,57.79
2018-04-16T09:27:23.877Z,57.50
2018-04-16T09:28:24.093Z,57.02
2018-04-16T09:29:24.313Z,57.02
2018-04-16T09:30:24.509Z,55.07
2018-04-16T09:31:24.709Z,53.81
2018-04-16T09:32:24.927Z,53.25
2018-04-16T09:33:25.118Z,53.28
2018-04-16T09:34:25.319Z,53.50
2018-04-16T09:35:25.525Z,53.40
2018-04-16T09:36:25.739Z,52.66
2018-04-16T09:37:25.952Z,49.60
2018-04-16T09:38:26.183Z,50.32
2018-04-16T09:39:26.368Z,49.63
2018-04-16T09:40:26.565Z,50.97
2018-04-16T09:41:26.771Z,52.03
2018-04-16T09:42:26.969Z,50.97
2018-04-16T09:43:27.178Z,51.53
2018-04-16T09:44:27.385Z,50.78
2018-04-16T09:45:27.596Z,51.74
2018-04-16T09:46:27.803Z,53.96
2018-04-16T09:47:28.018Z,53.83
2018-04-16T09:48:28.218Z,53.76
2018-04-16T09:49:28.412Z,54.41
2018-04-16T09:50:28.627Z,53.45
2018-04-16T09:51:28.821Z,52.58
2018-04-16T09:52:29.040Z,52.68
2018-04-16T09:53:29.260Z,54.69
2018-04-16T09:54:29.470Z,53.45
2018-04-16T09:55:29.670Z,54.31
2018-04-16T09:56:29.859Z,52.00
2018-04-16T09:59:03.713Z,51.43
2018-04-16T10:00:02.146Z,51.45
2018-04-16T10:01:02.375Z,49.60
2018-04-16T10:02:02.566Z,51.26
2018-04-16T10:03:02.766Z,51.93
2018-04-16T10:04:02.988Z,50.49
2018-04-16T10:05:03.199Z,52.99
2018-04-16T10:06:03.415Z,50.76
2018-04-16T10:07:03.606Z,52.51
2018-04-16T10:08:03.789Z,51.09
2018-04-16T10:10:35.935Z,50.81
2018-04-16T10:11:36.119Z,50.83
2018-04-16T10:12:36.315Z,49.36
2018-04-16T10:13:36.526Z,49.84
2018-04-16T10:14:36.715Z,50.83
2018-04-16T10:15:36.916Z,49.19
2018-04-16T10:16:37.132Z,49.65
2018-04-16T10:17:37.350Z,48.79
2018-04-16T10:18:37.560Z,48.64
2018-04-16T10:19:37.774Z,48.74
2018-04-16T10:20:37.966Z,49.19
2018-04-16T10:21:38.157Z,48.74
2018-04-16T10:22:38.368Z,48.16
2018-04-16T10:23:38.583Z,47.77
2018-04-16T10:24:38.782Z,47.49
2018-04-16T10:27:10.920Z,49.07
2018-04-16T10:28:11.098Z,49.05
2018-04-16T10:29:11.326Z,48.69
2018-04-16T10:30:11.486Z,49.55
2018-04-16T10:31:11.696Z,47.08
2018-04-16T10:32:11.890Z,44.32
2018-04-16T10:33:12.111Z,45.58
2018-04-16T10:34:12.385Z,45.87
2018-04-16T10:35:12.509Z,48.86
2018-04-16T10:37:44.692Z,46.37
2018-04-16T10:38:44.871Z,45.84
2018-04-16T10:39:45.082Z,46.37
2018-04-16T10:40:45.306Z,43.79
2018-04-16T10:41:45.514Z,45.45
2018-04-16T10:42:45.716Z,42.46
2018-04-16T10:43:45.926Z,44.20
2018-04-16T10:44:46.125Z,44.45
2018-04-16T10:45:46.321Z,46.25
2018-04-16T10:46:46.511Z,47.03
2018-04-16T10:47:46.711Z,45.58
2018-04-16T10:48:46.913Z,46.15
2018-04-16T10:49:47.140Z,45.41
2018-04-16T10:50:47.328Z,44.76
2018-04-16T10:51:47.527Z,46.55
2018-04-16T10:52:47.834Z,47.92
2018-04-16T10:53:47.923Z,49.65
2018-04-16T10:54:48.141Z,52.08
2018-04-16T10:55:48.324Z,51.60
2018-04-16T10:56:48.545Z,50.83
2018-04-16T10:57:48.748Z,49.84
2018-04-16T10:58:48.952Z,51.02
2018-04-16T10:59:49.143Z,48.83
2018-04-16T11:00:49.344Z,49.24
2018-04-16T11:01:49.565Z,46.47
2018-04-16T11:02:49.754Z,44.76
2018-04-16T11:03:49.956Z,43.04
2018-04-16T11:04:50.164Z,42.54
2018-04-16T11:05:50.356Z,42.85
2018-04-16T11:06:50.564Z,43.87
2018-04-16T11:07:50.756Z,46.20
2018-04-16T11:08:50.951Z,46.20
2018-04-16T11:09:51.155Z,47.38
2018-04-16T11:10:51.367Z,46.42
2018-04-16T11:11:51.567Z,46.42
2018-04-16T11:12:51.779Z,43.50
2018-04-16T11:13:51.968Z,44.20
2018-04-16T11:14:52.177Z,43.35
2018-04-16T11:15:52.395Z,42.41
2018-04-16T11:16:52.604Z,43.04
2018-04-16T11:17:52.813Z,45.31
2018-04-16T11:18:53.024Z,42.62
2018-04-16T11:19:53.228Z,43.80
2018-04-16T11:20:53.431Z,44.48
2018-04-16T11:21:53.645Z,42.02
2018-04-16T11:22:53.856Z,43.76
2018-04-16T11:23:54.065Z,43.91
2018-04-16T11:24:54.284Z,45.17
2018-04-16T11:25:54.506Z,45.58
2018-04-16T11:26:54.719Z,47.12
2018-04-16T11:27:54.929Z,46.56
2018-04-16T11:28:55.136Z,45.53
2018-04-16T11:29:55.344Z,45.62
2018-04-16T11:30:55.564Z,45.60
2018-04-16T11:31:55.765Z,46.15
2018-04-16T11:32:55.984Z,46.88
2018-04-16T11:33:56.190Z,49.00
2018-04-16T11:34:56.404Z,48.90
2018-04-16T11:35:56.636Z,48.81
2018-04-16T11:36:56.838Z,49.70
2018-04-16T11:37:57.071Z,48.16
2018-04-16T11:38:57.225Z,47.19
2018-04-16T11:39:57.449Z,49.68
2018-04-16T11:40:57.663Z,50.15
2018-04-16T11:43:29.840Z,49.87
2018-04-16T11:44:30.036Z,49.65
2018-04-16T11:45:30.237Z,50.23
2018-04-16T11:46:30.429Z,49.77
2018-04-16T11:47:30.622Z,50.23
2018-04-16T11:48:30.846Z,51.67
2018-04-16T11:49:31.042Z,51.84
2018-04-16T11:50:31.273Z,51.84
2018-04-16T11:51:31.459Z,51.64
2018-04-16T11:52:31.681Z,51.62
2018-04-16T11:53:31.885Z,51.62
2018-04-16T11:56:04.097Z,52.10
2018-04-16T11:57:05.256Z,52.58
2018-04-16T11:58:04.475Z,52.29
2018-04-16T11:59:04.667Z,53.38
2018-04-16T12:00:04.867Z,51.55
2018-04-16T12:01:05.068Z,52.34
2018-04-16T12:02:05.265Z,49.27
2018-04-16T12:03:05.479Z,49.38
2018-04-16T12:04:05.687Z,49.63
2018-04-16T12:05:06.037Z,48.18
2018-04-16T12:06:06.070Z,47.41
2018-04-16T12:07:06.265Z,46.83
2018-04-16T12:08:06.471Z,46.06
2018-04-16T12:09:06.687Z,47.14
2018-04-16T12:10:06.907Z,45.72
2018-04-16T12:11:07.095Z,47.07
2018-04-16T12:12:07.299Z,45.31
2018-04-16T12:13:07.490Z,46.86
2018-04-16T12:14:07.687Z,44.76
2018-04-16T12:15:07.909Z,45.24
2018-04-16T12:16:08.113Z,44.95
2018-04-16T12:17:08.330Z,46.01
2018-04-16T12:18:08.529Z,47.07
2018-04-16T12:19:08.745Z,45.84
2018-04-16T12:20:08.960Z,45.62
2018-04-16T12:21:09.157Z,46.88
2018-04-16T12:22:09.355Z,46.83
2018-04-16T12:23:09.576Z,48.38
2018-04-16T12:24:09.781Z,47.51
2018-04-16T12:25:10.006Z,48.03
2018-04-16T12:26:10.199Z,49.55
2018-04-16T12:27:10.394Z,48.61
2018-04-16T12:28:10.600Z,48.71
2018-04-16T12:29:10.850Z,48.81
2018-04-16T12:30:11.005Z,48.69
2018-04-16T12:31:11.225Z,47.44
2018-04-16T12:32:11.443Z,47.44
2018-04-16T12:33:11.661Z,47.53
2018-04-16T12:34:11.980Z,47.17
2018-04-16T12:35:12.088Z,47.65
2018-04-16T12:36:12.251Z,47.27
2018-04-16T12:37:12.462Z,48.52
2018-04-16T12:38:12.704Z,47.65
2018-04-16T12:39:12.947Z,47.00
2018-04-16T12:40:13.118Z,46.33
2018-04-16T12:41:13.316Z,46.95
2018-04-16T12:42:13.560Z,47.72
2018-04-16T12:43:13.753Z,47.82
2018-04-16T12:44:13.977Z,47.56
2018-04-16T12:45:14.167Z,49.36
2018-04-16T12:46:14.388Z,51.98
2018-04-16T12:47:14.584Z,49.68
2018-04-16T12:48:14.789Z,48.64
2018-04-16T12:49:15.020Z,47.87
2018-04-16T12:50:15.226Z,48.13
2018-04-16T12:51:15.425Z,47.63
2018-04-16T12:52:15.633Z,47.24
2018-04-16T12:53:15.843Z,47.53
2018-04-16T12:54:16.045Z,47.75
2018-04-16T12:55:16.240Z,47.46
2018-04-16T12:56:16.444Z,47.56
2018-04-16T12:57:16.656Z,46.98
2018-04-16T12:58:16.846Z,48.03
2018-04-16T12:59:17.066Z,46.98
2018-04-16T13:00:17.280Z,48.13
2018-04-16T13:01:17.497Z,47.85
2018-04-16T13:02:17.716Z,46.98
2018-04-16T13:03:17.896Z,47.49
2018-04-16T13:04:18.180Z,46.81
2018-04-16T13:05:18.253Z,45.10
2018-04-16T13:06:18.445Z,43.96
2018-04-16T13:07:18.666Z,43.37
2018-04-16T13:08:18.893Z,43.96
2018-04-16T13:09:19.143Z,44.52
2018-04-16T13:10:19.300Z,44.02
2018-04-16T13:11:19.515Z,44.52
2018-04-16T13:12:19.729Z,44.69
2018-04-16T13:13:19.946Z,45.36
2018-04-16T13:14:20.185Z,45.10
2018-04-16T13:15:20.494Z,45.41
2018-04-16T13:16:20.536Z,43.38
2018-04-16T13:17:20.774Z,42.32
2018-04-16T13:18:20.966Z,41.96
2018-04-16T13:19:21.165Z,43.60
2018-04-16T13:20:21.385Z,43.00
2018-04-16T13:21:21.576Z,42.02
2018-04-16T13:22:21.777Z,41.96
2018-04-16T13:23:21.981Z,42.13
2018-04-16T13:24:22.204Z,41.75
2018-04-16T13:25:22.416Z,42.03
2018-04-16T13:26:22.633Z,42.42
2018-04-16T13:27:22.845Z,41.77